createdAt,value
2024-03-09T00:00:45.273Z,52.83
2024-03-09T00:03:13.480Z,54.17
2024-03-09T00:05:41.213Z,50.80
2024-03-09T00:08:10.183Z,51.90
2024-03-09T00:10:37.605Z,52.73
2024-03-09T00:13:05.119Z,51.80
2024-03-09T00:15:32.804Z,53.83
2024-03-09T00:18:00.498Z,49.80
2024-03-09T00:20:38.064Z,52.63
2024-03-09T00:23:09.587Z,54.20
2024-03-09T00:25:39.324Z,56.27
2024-03-09T00:28:07.117Z,62.13
2024-03-09T00:30:36.394Z,59.60
2024-03-09T00:33:07.904Z,124.57
2024-03-09T00:35:36.299Z,146.67
2024-03-09T00:38:06.080Z,75.93
2024-03-09T00:40:33.628Z,60.27
2024-03-09T00:43:05.707Z,57.43
2024-03-09T00:45:33.164Z,84.13
2024-03-09T00:48:00.225Z,52.30
2024-03-09T00:50:28.547Z,51.33
2024-03-09T00:52:56.232Z,63.17
2024-03-09T00:55:24.312Z,54.27
2024-03-09T00:57:52.717Z,58.03
2024-03-09T01:00:25.689Z,52.63
2024-03-09T01:02:53.588Z,51.10
2024-03-09T01:05:24.599Z,52.13
2024-03-09T01:07:53.046Z,53.83
2024-03-09T01:10:20.763Z,57.47
2024-03-09T01:12:49.655Z,60.63
2024-03-09T01:15:17.229Z,53.23
2024-03-09T01:17:44.356Z,51.67
2024-03-09T01:20:11.980Z,56.27
2024-03-09T01:22:43.025Z,50.27
2024-03-09T01:25:10.066Z,71.97
2024-03-09T01:27:38.897Z,56.87
2024-03-09T01:30:10.699Z,50.37
2024-03-09T01:32:41.556Z,60.43
2024-03-09T01:35:10.818Z,64.20
2024-03-09T01:37:38.203Z,53.60
2024-03-09T01:40:06.873Z,53.73
2024-03-09T01:42:34.257Z,51.13
2024-03-09T01:45:05.589Z,53.27
2024-03-09T01:47:33.730Z,101.17
2024-03-09T01:50:01.190Z,62.83
2024-03-09T01:52:33.401Z,98.10
2024-03-09T01:55:04.394Z,55.50
2024-03-09T01:57:31.419Z,56.10
2024-03-09T01:59:58.405Z,61.07
2024-03-09T02:02:25.911Z,51.43
2024-03-09T02:04:53.296Z,51.60
2024-03-09T02:07:23.117Z,51.67
2024-03-09T02:09:50.108Z,51.37
2024-03-09T02:12:21.189Z,49.40
2024-03-09T02:14:49.667Z,51.67
2024-03-09T02:17:16.960Z,53.37
2024-03-09T02:19:44.201Z,53.53
2024-03-09T02:22:14.334Z,50.80
2024-03-09T02:24:42.870Z,57.80
2024-03-09T02:27:11.254Z,56.50
2024-03-09T02:29:41.249Z,59.40
2024-03-09T02:32:08.913Z,53.17
2024-03-09T02:34:36.602Z,53.53
2024-03-09T02:37:04.914Z,55.37
2024-03-09T02:39:32.448Z,56.67
2024-03-09T02:42:00.337Z,64.07
2024-03-09T02:44:28.460Z,72.63
2024-03-09T02:46:56.024Z,73.43
2024-03-09T02:49:28.221Z,69.20
2024-03-09T02:51:55.432Z,68.83
2024-03-09T02:54:24.465Z,64.90
2024-03-09T02:56:51.563Z,67.07
2024-03-09T02:59:18.505Z,65.77
2024-03-09T03:01:48.286Z,62.73
2024-03-09T03:04:16.575Z,70.57
2024-03-09T03:06:44.981Z,125.93
2024-03-09T03:09:13.639Z,102.57
2024-03-09T03:11:44.573Z,87.00
2024-03-09T03:14:12.482Z,68.93
2024-03-09T03:16:44.158Z,65.40
2024-03-09T03:19:11.205Z,59.80
2024-03-09T03:21:42.013Z,64.27
2024-03-09T03:24:14.092Z,69.90
2024-03-09T03:26:41.188Z,60.63
2024-03-09T03:29:09.120Z,61.90
2024-03-09T03:31:39.464Z,63.23
2024-03-09T03:34:07.135Z,66.93
2024-03-09T03:36:39.192Z,62.57
2024-03-09T03:39:12.575Z,66.83
2024-03-09T03:41:39.895Z,70.97
2024-03-09T03:44:06.874Z,62.07
2024-03-09T03:46:33.973Z,66.47
2024-03-09T03:49:02.867Z,65.80
2024-03-09T03:51:29.783Z,74.90
2024-03-09T03:53:58.303Z,64.77
2024-03-09T03:56:25.898Z,60.43
2024-03-09T03:58:53.190Z,58.13
2024-03-09T04:01:20.371Z,58.97
2024-03-09T04:03:48.707Z,59.77
2024-03-09T04:06:15.663Z,56.57
2024-03-09T04:08:42.834Z,57.03
2024-03-09T04:11:09.942Z,58.97
2024-03-09T04:13:36.865Z,58.53
2024-03-09T04:16:05.152Z,61.60
2024-03-09T04:18:33.190Z,60.20
2024-03-09T04:21:03.166Z,59.30
2024-03-09T04:23:30.446Z,59.73
2024-03-09T04:25:57.668Z,61.47
2024-03-09T04:28:29.276Z,58.47
2024-03-09T04:30:58.255Z,61.17
2024-03-09T04:33:25.917Z,68.33
2024-03-09T04:35:54.614Z,68.77
2024-03-09T04:38:22.405Z,71.57
2024-03-09T04:40:52.785Z,64.40
2024-03-09T04:43:20.293Z,67.00
2024-03-09T04:45:47.771Z,90.93
2024-03-09T04:48:15.952Z,114.20
2024-03-09T04:50:48.833Z,79.40
2024-03-09T04:53:18.153Z,68.37
2024-03-09T04:55:49.975Z,64.97
2024-03-09T04:58:23.080Z,71.97
2024-03-09T05:00:50.063Z,69.47
2024-03-09T05:03:19.174Z,67.83
2024-03-09T05:05:46.225Z,70.33
2024-03-09T05:08:13.864Z,65.00
2024-03-09T05:10:41.386Z,67.27
2024-03-09T05:13:09.572Z,61.80
2024-03-09T05:15:37.672Z,65.47
2024-03-09T05:18:12.643Z,63.77
2024-03-09T05:20:40.858Z,62.30
2024-03-09T05:23:14.932Z,63.83
2024-03-09T05:25:44.171Z,64.13
2024-03-09T05:28:14.899Z,61.97
2024-03-09T05:30:43.715Z,60.37
2024-03-09T05:33:11.206Z,62.97
2024-03-09T05:35:39.357Z,68.80
2024-03-09T05:38:07.208Z,71.70
2024-03-09T05:40:36.172Z,63.97
2024-03-09T05:43:08.771Z,59.63
2024-03-09T05:45:37.468Z,63.77
2024-03-09T05:48:05.341Z,63.33
2024-03-09T05:50:33.522Z,61.43
2024-03-09T05:53:06.632Z,71.57
2024-03-09T05:55:33.931Z,80.60
2024-03-09T05:58:01.248Z,97.60
2024-03-09T06:00:31.345Z,70.03
2024-03-09T06:03:03.818Z,70.70
2024-03-09T06:05:35.107Z,74.40
2024-03-09T06:08:03.839Z,76.30
2024-03-09T06:10:31.592Z,65.87
2024-03-09T06:12:58.784Z,80.33
2024-03-09T06:15:27.166Z,70.13
2024-03-09T06:18:07.103Z,66.83
2024-03-09T06:20:36.070Z,67.03
2024-03-09T06:23:03.548Z,85.37
2024-03-09T06:25:31.517Z,64.87
2024-03-09T06:28:03.893Z,64.10
2024-03-09T06:30:34.359Z,69.17
2024-03-09T06:33:03.323Z,65.37
2024-03-09T06:35:32.400Z,60.47
2024-03-09T06:38:02.118Z,56.73
2024-03-09T06:40:34.432Z,62.17
2024-03-09T06:43:02.967Z,62.00
2024-03-09T06:45:31.059Z,70.87
2024-03-09T06:48:00.898Z,65.63
2024-03-09T06:50:45.737Z,72.23
2024-03-09T06:53:13.620Z,63.70
2024-03-09T06:55:41.003Z,61.20
2024-03-09T06:58:08.194Z,63.57
2024-03-09T07:00:37.175Z,63.73
2024-03-09T07:03:06.945Z,71.50
2024-03-09T07:05:40.873Z,63.63
2024-03-09T07:08:11.551Z,66.00
2024-03-09T07:10:39.067Z,62.10
2024-03-09T07:13:06.694Z,59.80
2024-03-09T07:15:34.157Z,74.53
2024-03-09T07:18:02.239Z,53.13
2024-03-09T07:20:30.413Z,50.33
2024-03-09T07:22:57.971Z,50.93
2024-03-09T07:25:27.456Z,48.97
2024-03-09T07:27:57.142Z,53.43
2024-03-09T07:30:35.471Z,58.37
2024-03-09T07:33:03.563Z,58.23
2024-03-09T07:35:31.769Z,44.97
2024-03-09T07:38:00.984Z,43.37
2024-03-09T07:40:42.430Z,46.10
2024-03-09T07:43:15.349Z,45.13
2024-03-09T07:45:42.543Z,42.83
2024-03-09T07:48:09.851Z,61.93
2024-03-09T07:50:37.014Z,58.97
2024-03-09T07:53:07.642Z,54.33
2024-03-09T07:55:35.730Z,60.87
2024-03-09T08:00:36.911Z,40.13
2024-03-09T08:03:04.381Z,34.27
2024-03-09T08:05:31.654Z,33.13
2024-03-09T08:08:05.129Z,34.47
2024-03-09T08:10:35.344Z,36.47
2024-03-09T08:13:03.164Z,30.00
2024-03-09T08:15:30.791Z,40.07
2024-03-09T08:17:58.354Z,34.43
2024-03-09T08:20:25.770Z,30.87
2024-03-09T08:22:54.355Z,26.50
2024-03-09T08:25:21.997Z,26.23
2024-03-09T08:27:55.826Z,24.43
2024-03-09T08:30:23.263Z,23.13
2024-03-09T08:32:55.175Z,22.93
2024-03-09T08:35:23.526Z,22.70
2024-03-09T08:37:52.444Z,22.47
2024-03-09T08:40:22.095Z,22.83
2024-03-09T08:42:53.139Z,24.90
2024-03-09T08:45:30.923Z,23.53
2024-03-09T08:47:58.293Z,22.47
2024-03-09T08:50:36.410Z,18.80
2024-03-09T08:53:03.611Z,21.27
2024-03-09T08:55:31.003Z,19.50
2024-03-09T08:57:57.984Z,18.70
2024-03-09T09:00:27.988Z,22.33
2024-03-09T09:02:58.385Z,19.80
2024-03-09T09:05:28.923Z,18.87
2024-03-09T09:07:57.028Z,21.70
2024-03-09T09:10:26.818Z,21.53
2024-03-09T09:12:55.524Z,24.33
2024-03-09T09:15:24.481Z,16.17
2024-03-09T09:17:51.615Z,17.53
2024-03-09T09:20:21.538Z,16.17
2024-03-09T09:22:49.439Z,17.33
2024-03-09T09:25:29.967Z,15.87
2024-03-09T09:28:03.861Z,17.93
2024-03-09T09:30:31.112Z,14.73
2024-03-09T09:32:58.709Z,14.57
2024-03-09T09:35:26.198Z,14.33
2024-03-09T09:37:54.601Z,13.07
2024-03-09T09:40:25.083Z,13.17
2024-03-09T09:43:01.463Z,12.77
2024-03-09T09:45:30.479Z,14.23
2024-03-09T09:48:01.036Z,12.23
2024-03-09T09:50:35.654Z,14.10
2024-03-09T09:53:09.374Z,11.20
2024-03-09T09:55:37.927Z,10.23
2024-03-09T09:58:08.144Z,9.47
2024-03-09T10:00:35.016Z,22.43
2024-03-09T10:03:02.784Z,17.27
2024-03-09T10:05:30.344Z,16.37
2024-03-09T10:08:07.352Z,22.47
2024-03-09T10:10:38.091Z,22.83
2024-03-09T10:13:10.311Z,11.57
2024-03-09T10:15:39.565Z,20.13
2024-03-09T10:18:07.590Z,20.07
2024-03-09T10:20:36.770Z,17.53
2024-03-09T10:23:06.205Z,25.87
2024-03-09T10:25:37.343Z,17.17
2024-03-09T10:28:06.744Z,19.13
2024-03-09T10:30:34.572Z,14.70
2024-03-09T10:33:01.500Z,20.50
2024-03-09T10:35:28.769Z,15.60
2024-03-09T10:37:57.073Z,16.63
2024-03-09T10:40:33.659Z,20.97
2024-03-09T10:43:05.242Z,16.97
2024-03-09T10:45:35.133Z,15.50
2024-03-09T10:48:10.742Z,15.67
2024-03-09T10:50:42.359Z,15.27
2024-03-09T10:53:10.021Z,14.37
2024-03-09T10:56:07.700Z,15.70
2024-03-09T10:58:37.747Z,16.27
2024-03-09T11:01:12.667Z,18.30
2024-03-09T11:03:40.555Z,22.40
2024-03-09T11:06:12.478Z,19.10
2024-03-09T11:08:41.316Z,18.23
2024-03-09T11:11:11.850Z,17.87
2024-03-09T11:13:39.431Z,16.40
2024-03-09T11:16:17.022Z,16.93
2024-03-09T11:18:45.176Z,14.77
2024-03-09T11:21:34.262Z,15.77
2024-03-09T11:24:13.415Z,17.97
2024-03-09T11:26:52.026Z,17.83
2024-03-09T11:29:21.113Z,20.27
2024-03-09T11:31:50.790Z,20.30
2024-03-09T11:34:24.484Z,18.93
2024-03-09T11:36:58.695Z,17.00
2024-03-09T11:39:32.843Z,34.17
2024-03-09T11:42:02.240Z,42.37
2024-03-09T11:44:32.080Z,21.37
2024-03-09T11:46:59.565Z,16.67
2024-03-09T11:49:34.607Z,18.40
2024-03-09T11:52:08.326Z,15.90
2024-03-09T11:54:39.485Z,20.80
2024-03-09T11:57:11.831Z,16.17
2024-03-09T11:59:38.870Z,14.60
2024-03-09T12:02:09.852Z,15.97
2024-03-09T12:04:37.608Z,17.63
2024-03-09T12:07:09.970Z,21.53
2024-03-09T12:09:38.891Z,23.47
2024-03-09T12:12:16.394Z,14.30
2024-03-09T12:14:45.028Z,16.93
2024-03-09T12:17:13.882Z,16.57
2024-03-09T12:19:42.453Z,17.73
2024-03-09T12:22:11.004Z,15.60
2024-03-09T12:24:37.945Z,15.67
2024-03-09T12:27:09.967Z,14.50
2024-03-09T12:29:40.279Z,21.23
2024-03-09T12:32:08.266Z,22.83
2024-03-09T12:34:38.111Z,19.43
2024-03-09T12:37:05.748Z,27.73
2024-03-09T12:39:32.578Z,19.07
2024-03-09T12:42:04.112Z,15.73
2024-03-09T12:44:40.407Z,25.40
2024-03-09T12:47:08.149Z,22.17
2024-03-09T12:49:35.287Z,33.07
2024-03-09T12:52:03.710Z,16.23
2024-03-09T12:54:32.390Z,27.13
2024-03-09T12:57:04.819Z,20.87
2024-03-09T12:59:31.970Z,19.07
2024-03-09T13:02:02.260Z,26.17
2024-03-09T13:04:39.080Z,21.43
2024-03-09T13:07:06.666Z,22.03
2024-03-09T13:09:34.970Z,24.30
2024-03-09T13:12:05.344Z,19.27
2024-03-09T13:14:35.668Z,24.30
2024-03-09T13:17:09.886Z,22.43
2024-03-09T13:19:38.229Z,16.57
2024-03-09T13:22:08.001Z,15.43
2024-03-09T13:24:37.973Z,15.77
2024-03-09T13:27:09.546Z,16.00
2024-03-09T13:29:37.928Z,9.97
2024-03-09T13:32:13.465Z,12.97
2024-03-09T13:34:41.336Z,13.47
2024-03-09T13:37:12.674Z,13.60
2024-03-09T13:39:39.780Z,13.83
2024-03-09T13:42:10.963Z,12.93
2024-03-09T13:44:38.626Z,20.63
2024-03-09T13:47:07.041Z,11.33
2024-03-09T13:49:38.429Z,11.60
2024-03-09T13:52:06.087Z,11.87
2024-03-09T13:54:35.630Z,12.60
2024-03-09T13:57:02.586Z,12.27
2024-03-09T13:59:30.028Z,9.10
2024-03-09T14:01:57.550Z,21.50
2024-03-09T14:04:25.941Z,9.63
2024-03-09T14:07:06.583Z,7.93
2024-03-09T14:09:41.021Z,11.80
2024-03-09T14:12:11.647Z,14.70
2024-03-09T14:14:39.974Z,11.70
2024-03-09T14:17:10.885Z,8.60
2024-03-09T14:19:41.560Z,13.90
2024-03-09T14:22:12.691Z,12.43
2024-03-09T14:24:39.945Z,19.57
2024-03-09T14:27:08.059Z,11.73
2024-03-09T14:29:38.291Z,16.93
2024-03-09T14:32:07.899Z,15.03
2024-03-09T14:34:36.612Z,10.53
2024-03-09T14:37:04.127Z,13.30
2024-03-09T14:39:32.085Z,12.83
2024-03-09T14:41:59.327Z,12.43
2024-03-09T14:44:26.296Z,10.93
2024-03-09T14:46:53.462Z,9.97
2024-03-09T14:49:21.176Z,12.47
2024-03-09T14:51:48.354Z,9.40
2024-03-09T14:54:18.001Z,13.87
2024-03-09T14:56:47.510Z,15.37
2024-03-09T14:59:16.656Z,7.87
2024-03-09T15:01:47.759Z,9.20
2024-03-09T15:04:16.340Z,10.47
2024-03-09T15:06:43.406Z,12.10
2024-03-09T15:09:24.629Z,13.00
2024-03-09T15:11:55.513Z,14.37
2024-03-09T15:14:23.178Z,15.33
2024-03-09T15:16:56.718Z,17.57
2024-03-09T15:19:27.658Z,16.17
2024-03-09T15:21:57.869Z,17.10
2024-03-09T15:24:24.755Z,15.87
2024-03-09T15:26:51.882Z,13.93
2024-03-09T15:29:25.612Z,12.57
2024-03-09T15:32:02.175Z,9.87
2024-03-09T15:34:29.946Z,13.77
2024-03-09T15:36:59.985Z,15.20
2024-03-09T15:39:27.983Z,14.30
2024-03-09T15:41:59.687Z,11.97
2024-03-09T15:44:30.031Z,14.83
2024-03-09T15:47:03.035Z,14.70
2024-03-09T15:49:32.247Z,16.97
2024-03-09T15:52:00.800Z,17.43
2024-03-09T15:54:30.924Z,9.00
2024-03-09T15:56:58.121Z,11.97
2024-03-09T15:59:25.591Z,10.93
2024-03-09T16:01:59.609Z,10.07
2024-03-09T16:04:28.813Z,10.70
2024-03-09T16:06:58.523Z,11.20
2024-03-09T16:09:28.091Z,12.10
2024-03-09T16:11:56.077Z,15.10
2024-03-09T16:14:23.759Z,11.70
2024-03-09T16:16:50.944Z,12.43
2024-03-09T16:19:18.724Z,11.17
2024-03-09T16:21:48.828Z,11.57
2024-03-09T16:24:20.656Z,12.30
2024-03-09T16:26:47.482Z,15.27
2024-03-09T16:29:14.707Z,12.00
2024-03-09T16:31:41.874Z,14.27
2024-03-09T16:34:09.577Z,24.53
2024-03-09T16:36:36.800Z,26.10
2024-03-09T16:39:09.484Z,30.87
2024-03-09T16:41:39.823Z,38.07
2024-03-09T16:44:06.966Z,20.33
2024-03-09T16:46:33.947Z,29.00
2024-03-09T16:49:03.596Z,22.80
2024-03-09T16:51:30.978Z,25.70
2024-03-09T16:53:58.112Z,22.17
2024-03-09T16:56:29.804Z,22.50
2024-03-09T16:58:57.297Z,27.57
2024-03-09T17:01:25.587Z,20.47
2024-03-09T17:03:52.638Z,16.63
2024-03-09T17:06:20.551Z,26.13
2024-03-09T17:08:48.606Z,32.50
2024-03-09T17:11:16.096Z,20.57
2024-03-09T17:13:48.748Z,18.70
2024-03-09T17:16:19.006Z,23.97
2024-03-09T17:18:50.204Z,16.90
2024-03-09T17:21:18.468Z,27.17
2024-03-09T17:23:46.424Z,23.43
2024-03-09T17:26:14.621Z,28.33
2024-03-09T17:28:41.676Z,32.50
2024-03-09T17:31:09.621Z,32.07
2024-03-09T17:33:38.650Z,23.57
2024-03-09T17:36:07.944Z,45.97
2024-03-09T17:38:34.994Z,58.63
2024-03-09T17:41:03.296Z,46.37
2024-03-09T17:43:30.571Z,38.03
2024-03-09T17:45:57.750Z,61.77
2024-03-09T17:48:24.927Z,77.47
2024-03-09T17:50:57.384Z,77.13
2024-03-09T17:53:24.526Z,93.13
2024-03-09T17:55:54.774Z,68.97
2024-03-09T17:58:26.088Z,41.50
2024-03-09T18:00:55.729Z,32.57
2024-03-09T18:03:22.856Z,31.03
2024-03-09T18:05:57.189Z,31.43
2024-03-09T18:08:25.282Z,36.33
2024-03-09T18:10:52.289Z,28.03
2024-03-09T18:13:22.096Z,31.93
2024-03-09T18:15:49.124Z,23.93
2024-03-09T18:21:09.830Z,54.03
2024-03-09T18:23:43.940Z,52.03
2024-03-09T18:26:13.306Z,70.07
2024-03-09T18:28:43.506Z,74.40
2024-03-09T18:31:11.655Z,34.00
2024-03-09T18:33:43.689Z,31.57
2024-03-09T18:36:14.173Z,34.73
2024-03-09T18:38:41.536Z,56.87
2024-03-09T18:41:11.446Z,60.13
2024-03-09T18:43:39.005Z,62.57
2024-03-09T18:46:09.006Z,46.27
2024-03-09T18:48:36.169Z,37.33
2024-03-09T18:51:03.773Z,21.73
2024-03-09T18:53:33.994Z,37.10
2024-03-09T18:56:01.108Z,28.40
2024-03-09T18:58:28.029Z,38.50
2024-03-09T19:00:55.896Z,32.17
2024-03-09T19:03:22.989Z,22.33
2024-03-09T19:05:50.491Z,21.13
2024-03-09T19:08:18.807Z,41.40
2024-03-09T19:10:46.802Z,26.77
2024-03-09T19:13:15.653Z,28.90
2024-03-09T19:15:43.355Z,32.63
2024-03-09T19:18:10.914Z,50.47
2024-03-09T19:20:39.930Z,45.37
2024-03-09T19:23:07.129Z,42.70
2024-03-09T19:25:36.710Z,27.80
2024-03-09T19:28:03.923Z,32.30
2024-03-09T19:30:33.676Z,45.87
2024-03-09T19:33:00.922Z,22.07
2024-03-09T19:35:29.616Z,20.60
2024-03-09T19:37:59.750Z,38.87
2024-03-09T19:40:28.170Z,26.00
2024-03-09T19:42:56.410Z,31.60
2024-03-09T19:45:24.683Z,31.87
2024-03-09T19:47:53.221Z,39.37
2024-03-09T19:50:24.385Z,22.03
2024-03-09T19:52:52.992Z,43.60
2024-03-09T19:55:23.235Z,23.63
2024-03-09T19:57:50.383Z,39.73
2024-03-09T20:00:20.936Z,33.27
2024-03-09T20:02:58.241Z,28.93
2024-03-09T20:05:34.572Z,28.13
2024-03-09T20:08:02.744Z,36.27
2024-03-09T20:10:33.839Z,30.27
2024-03-09T20:13:01.627Z,28.07
2024-03-09T20:15:29.656Z,29.33
2024-03-09T20:18:04.023Z,23.93
2024-03-09T20:20:33.504Z,23.60
2024-03-09T20:23:01.917Z,25.57
2024-03-09T20:25:29.000Z,23.97
2024-03-09T20:27:56.736Z,23.77
2024-03-09T20:30:24.115Z,25.53
2024-03-09T20:32:52.645Z,23.13
2024-03-09T20:35:20.953Z,25.67
2024-03-09T20:37:52.017Z,21.40
2024-03-09T20:40:20.642Z,38.00
2024-03-09T20:42:51.246Z,29.23
2024-03-09T20:45:19.665Z,24.07
2024-03-09T20:47:47.497Z,24.57
2024-03-09T20:50:16.483Z,25.60
2024-03-09T20:52:48.912Z,31.37
2024-03-09T20:55:16.354Z,27.33
2024-03-09T20:57:43.377Z,25.67
2024-03-09T21:00:24.143Z,21.53
2024-03-09T21:02:53.423Z,26.60
2024-03-09T21:05:21.115Z,27.33
2024-03-09T21:07:48.204Z,24.63
2024-03-09T21:10:16.105Z,26.40
2024-03-09T21:12:47.953Z,33.97
2024-03-09T21:15:15.270Z,20.20
2024-03-09T21:17:42.756Z,31.67
2024-03-09T21:20:15.622Z,25.57
2024-03-09T21:22:43.464Z,27.93
2024-03-09T21:25:12.216Z,21.27
2024-03-09T21:27:43.907Z,22.07
2024-03-09T21:30:15.642Z,21.23
2024-03-09T21:32:46.225Z,24.33
2024-03-09T21:35:14.250Z,26.83
2024-03-09T21:37:45.054Z,22.80
2024-03-09T21:40:14.686Z,23.77
2024-03-09T21:42:46.659Z,21.80
2024-03-09T21:45:15.356Z,21.67
2024-03-09T21:47:44.717Z,20.57
2024-03-09T21:50:18.259Z,21.77
2024-03-09T21:52:50.038Z,20.27
2024-03-09T21:55:18.025Z,21.13
2024-03-09T21:57:45.450Z,20.73
2024-03-09T22:00:31.280Z,23.67
2024-03-09T22:03:02.422Z,27.67
2024-03-09T22:05:30.108Z,21.67
2024-03-09T22:07:58.766Z,23.07
2024-03-09T22:10:26.342Z,17.03
2024-03-09T22:12:56.679Z,21.33
2024-03-09T22:15:27.425Z,17.73
2024-03-09T22:17:56.358Z,19.17
2024-03-09T22:20:23.910Z,23.83
2024-03-09T22:22:51.259Z,23.00
2024-03-09T22:25:27.680Z,22.10
2024-03-09T22:27:55.523Z,17.43
2024-03-09T22:30:22.949Z,28.90
2024-03-09T22:32:50.168Z,19.70
2024-03-09T22:35:17.770Z,31.20
2024-03-09T22:37:46.333Z,20.10
2024-03-09T22:40:21.668Z,16.17
2024-03-09T22:42:49.604Z,15.20
2024-03-09T22:45:17.186Z,26.27
2024-03-09T22:47:46.540Z,17.10
2024-03-09T22:50:16.672Z,24.13
2024-03-09T22:52:44.343Z,20.93
2024-03-09T22:55:12.351Z,17.53
2024-03-09T22:57:41.657Z,26.13
2024-03-09T23:00:33.884Z,28.33
2024-03-09T23:03:02.895Z,24.50
2024-03-09T23:05:31.159Z,32.00
2024-03-09T23:07:58.656Z,23.67
2024-03-09T23:10:27.051Z,24.27
2024-03-09T23:12:54.381Z,22.23
2024-03-09T23:15:23.490Z,29.73
2024-03-09T23:17:53.860Z,27.87
2024-03-09T23:20:24.616Z,36.57
2024-03-09T23:22:52.821Z,38.20
2024-03-09T23:25:22.820Z,34.10
2024-03-09T23:27:49.978Z,35.77
2024-03-09T23:30:18.623Z,28.73
2024-03-09T23:32:54.534Z,27.77
2024-03-09T23:35:24.984Z,42.00
2024-03-09T23:37:52.427Z,29.43
2024-03-09T23:40:22.633Z,30.20
2024-03-09T23:42:49.780Z,25.87
2024-03-09T23:45:20.900Z,30.83
2024-03-09T23:47:49.282Z,34.13
2024-03-09T23:50:21.825Z,31.03
2024-03-09T23:52:52.615Z,22.93
2024-03-09T23:55:22.076Z,37.33
2024-03-09T23:57:49.626Z,25.97
